sensor_id;sensor_type;location;lat;lon;timestamp;P1;durP1;ratioP1;P2;durP2;ratioP2
60847;SDS011;46681;47.696;9.140;2023-07-20T00:01:35;2.27;;;2.17;;
60847;SDS011;46681;47.696;9.140;2023-07-20T00:04:01;3.20;;;2.30;;
60847;SDS011;46681;47.696;9.140;2023-07-20T00:06:27;2.27;;;2.17;;
60847;SDS011;46681;47.696;9.140;2023-07-20T00:08:52;2.30;;;2.10;;
60847;SDS011;46681;47.696;9.140;2023-07-20T00:11:24;2.50;;;2.30;;
60847;SDS011;46681;47.696;9.140;2023-07-20T00:13:52;2.20;;;1.50;;
60847;SDS011;46681;47.696;9.140;2023-07-20T00:16:17;2.30;;;2.10;;
60847;SDS011;46681;47.696;9.140;2023-07-20T00:18:43;2.17;;;1.97;;
60847;SDS011;46681;47.696;9.140;2023-07-20T00:21:09;1.80;;;1.70;;
60847;SDS011;46681;47.696;9.140;2023-07-20T00:23:35;2.43;;;2.20;;
60847;SDS011;46681;47.696;9.140;2023-07-20T00:26:05;2.90;;;2.00;;
60847;SDS011;46681;47.696;9.140;2023-07-20T00:28:32;2.47;;;2.17;;
60847;SDS011;46681;47.696;9.140;2023-07-20T00:30:59;2.00;;;1.90;;
60847;SDS011;46681;47.696;9.140;2023-07-20T00:33:30;3.13;;;2.13;;
60847;SDS011;46681;47.696;9.140;2023-07-20T00:35:56;2.33;;;2.10;;
60847;SDS011;46681;47.696;9.140;2023-07-20T00:38:22;2.13;;;2.03;;
60847;SDS011;46681;47.696;9.140;2023-07-20T00:40:47;1.83;;;1.73;;
60847;SDS011;46681;47.696;9.140;2023-07-20T00:43:13;2.20;;;2.10;;
60847;SDS011;46681;47.696;9.140;2023-07-20T00:45:39;2.00;;;1.90;;
60847;SDS011;46681;47.696;9.140;2023-07-20T00:48:05;2.50;;;1.80;;
60847;SDS011;46681;47.696;9.140;2023-07-20T00:50:34;2.43;;;1.90;;
60847;SDS011;46681;47.696;9.140;2023-07-20T00:53:01;2.73;;;2.10;;
60847;SDS011;46681;47.696;9.140;2023-07-20T00:55:31;1.80;;;1.70;;
60847;SDS011;46681;47.696;9.140;2023-07-20T00:57:57;3.10;;;1.57;;
60847;SDS011;46681;47.696;9.140;2023-07-20T01:00:26;2.03;;;1.80;;
60847;SDS011;46681;47.696;9.140;2023-07-20T01:02:52;2.10;;;1.90;;
60847;SDS011;46681;47.696;9.140;2023-07-20T01:05:18;1.90;;;1.80;;
60847;SDS011;46681;47.696;9.140;2023-07-20T01:07:46;2.37;;;1.83;;
60847;SDS011;46681;47.696;9.140;2023-07-20T01:10:33;2.00;;;1.77;;
60847;SDS011;46681;47.696;9.140;2023-07-20T01:13:06;2.23;;;2.03;;
60847;SDS011;46681;47.696;9.140;2023-07-20T01:15:34;2.07;;;1.97;;
60847;SDS011;46681;47.696;9.140;2023-07-20T01:18:01;2.10;;;1.90;;
60847;SDS011;46681;47.696;9.140;2023-07-20T01:20:28;3.40;;;2.00;;
60847;SDS011;46681;47.696;9.140;2023-07-20T01:31:37;1.97;;;1.60;;
60847;SDS011;46681;47.696;9.140;2023-07-20T01:34:05;2.40;;;1.53;;
60847;SDS011;46681;47.696;9.140;2023-07-20T01:36:34;1.70;;;1.57;;
60847;SDS011;46681;47.696;9.140;2023-07-20T01:39:03;2.00;;;1.87;;
60847;SDS011;46681;47.696;9.140;2023-07-20T01:41:31;1.53;;;1.43;;
60847;SDS011;46681;47.696;9.140;2023-07-20T01:44:03;2.47;;;2.00;;
60847;SDS011;46681;47.696;9.140;2023-07-20T01:46:29;1.60;;;1.50;;
60847;SDS011;46681;47.696;9.140;2023-07-20T01:48:55;1.60;;;1.50;;
60847;SDS011;46681;47.696;9.140;2023-07-20T01:51:21;1.70;;;1.60;;
60847;SDS011;46681;47.696;9.140;2023-07-20T01:53:48;1.87;;;1.77;;
60847;SDS011;46681;47.696;9.140;2023-07-20T01:56:13;1.83;;;1.73;;
60847;SDS011;46681;47.696;9.140;2023-07-20T01:58:41;3.13;;;1.40;;
60847;SDS011;46681;47.696;9.140;2023-07-20T02:01:07;1.53;;;1.43;;
60847;SDS011;46681;47.696;9.140;2023-07-20T02:03:32;1.73;;;1.63;;
60847;SDS011;46681;47.696;9.140;2023-07-20T02:08:33;1.63;;;1.50;;
60847;SDS011;46681;47.696;9.140;2023-07-20T02:11:04;6.53;;;1.93;;
60847;SDS011;46681;47.696;9.140;2023-07-20T02:13:31;1.77;;;1.53;;
60847;SDS011;46681;47.696;9.140;2023-07-20T02:15:58;2.10;;;1.53;;
60847;SDS011;46681;47.696;9.140;2023-07-20T02:18:23;1.73;;;1.63;;
60847;SDS011;46681;47.696;9.140;2023-07-20T02:20:49;2.60;;;1.57;;
60847;SDS011;46681;47.696;9.140;2023-07-20T02:23:19;2.20;;;1.83;;
60847;SDS011;46681;47.696;9.140;2023-07-20T02:25:46;1.70;;;1.60;;
60847;SDS011;46681;47.696;9.140;2023-07-20T02:28:19;1.77;;;1.57;;
60847;SDS011;46681;47.696;9.140;2023-07-20T02:30:44;2.37;;;1.67;;
60847;SDS011;46681;47.696;9.140;2023-07-20T02:33:10;2.33;;;1.50;;
60847;SDS011;46681;47.696;9.140;2023-07-20T02:35:36;1.97;;;1.87;;
60847;SDS011;46681;47.696;9.140;2023-07-20T02:38:01;1.77;;;1.67;;
60847;SDS011;46681;47.696;9.140;2023-07-20T02:40:29;2.60;;;1.77;;
60847;SDS011;46681;47.696;9.140;2023-07-20T02:42:54;1.77;;;1.57;;
60847;SDS011;46681;47.696;9.140;2023-07-20T02:45:20;1.70;;;1.60;;
60847;SDS011;46681;47.696;9.140;2023-07-20T02:47:46;1.90;;;1.80;;
60847;SDS011;46681;47.696;9.140;2023-07-20T02:50:12;1.47;;;1.37;;
60847;SDS011;46681;47.696;9.140;2023-07-20T02:52:45;1.80;;;1.70;;
60847;SDS011;46681;47.696;9.140;2023-07-20T02:55:10;2.13;;;2.03;;
60847;SDS011;46681;47.696;9.140;2023-07-20T02:57:36;1.90;;;1.70;;
60847;SDS011;46681;47.696;9.140;2023-07-20T03:00:03;2.80;;;2.03;;
60847;SDS011;46681;47.696;9.140;2023-07-20T03:02:29;1.70;;;1.60;;
60847;SDS011;46681;47.696;9.140;2023-07-20T03:04:55;1.80;;;1.70;;
60847;SDS011;46681;47.696;9.140;2023-07-20T03:07:21;1.60;;;1.50;;
60847;SDS011;46681;47.696;9.140;2023-07-20T03:09:47;1.87;;;1.70;;
60847;SDS011;46681;47.696;9.140;2023-07-20T03:12:12;1.40;;;1.37;;
60847;SDS011;46681;47.696;9.140;2023-07-20T03:14:38;2.10;;;1.67;;
60847;SDS011;46681;47.696;9.140;2023-07-20T03:17:03;2.33;;;1.73;;
60847;SDS011;46681;47.696;9.140;2023-07-20T03:19:30;1.63;;;1.53;;
60847;SDS011;46681;47.696;9.140;2023-07-20T03:21:56;1.67;;;1.57;;
60847;SDS011;46681;47.696;9.140;2023-07-20T03:24:21;2.80;;;1.60;;
60847;SDS011;46681;47.696;9.140;2023-07-20T03:26:49;1.50;;;1.40;;
60847;SDS011;46681;47.696;9.140;2023-07-20T03:29:16;1.70;;;1.60;;
60847;SDS011;46681;47.696;9.140;2023-07-20T03:31:42;1.70;;;1.60;;
60847;SDS011;46681;47.696;9.140;2023-07-20T03:34:10;2.00;;;1.90;;
60847;SDS011;46681;47.696;9.140;2023-07-20T03:36:38;2.20;;;1.90;;
60847;SDS011;46681;47.696;9.140;2023-07-20T03:39:04;1.90;;;1.80;;
60847;SDS011;46681;47.696;9.140;2023-07-20T03:41:29;2.03;;;1.83;;
60847;SDS011;46681;47.696;9.140;2023-07-20T03:43:55;4.10;;;1.70;;
60847;SDS011;46681;47.696;9.140;2023-07-20T03:46:21;2.23;;;2.10;;
60847;SDS011;46681;47.696;9.140;2023-07-20T03:48:46;1.70;;;1.60;;
60847;SDS011;46681;47.696;9.140;2023-07-20T03:51:12;2.10;;;1.80;;
60847;SDS011;46681;47.696;9.140;2023-07-20T03:53:43;3.43;;;1.90;;
60847;SDS011;46681;47.696;9.140;2023-07-20T03:56:09;6.57;;;2.17;;
60847;SDS011;46681;47.696;9.140;2023-07-20T03:58:37;4.30;;;1.70;;
60847;SDS011;46681;47.696;9.140;2023-07-20T04:01:03;4.50;;;2.10;;
60847;SDS011;46681;47.696;9.140;2023-07-20T04:03:28;2.40;;;1.97;;
60847;SDS011;46681;47.696;9.140;2023-07-20T04:05:54;2.17;;;2.03;;
60847;SDS011;46681;47.696;9.140;2023-07-20T04:08:24;2.30;;;1.83;;
60847;SDS011;46681;47.696;9.140;2023-07-20T04:10:49;1.90;;;1.73;;
60847;SDS011;46681;47.696;9.140;2023-07-20T04:13:15;2.20;;;2.00;;
60847;SDS011;46681;47.696;9.140;2023-07-20T04:15:41;2.10;;;1.90;;
60847;SDS011;46681;47.696;9.140;2023-07-20T04:18:16;2.20;;;2.10;;
60847;SDS011;46681;47.696;9.140;2023-07-20T04:20:43;3.27;;;2.13;;
60847;SDS011;46681;47.696;9.140;2023-07-20T04:23:11;2.33;;;2.13;;
60847;SDS011;46681;47.696;9.140;2023-07-20T04:25:38;2.60;;;2.40;;
60847;SDS011;46681;47.696;9.140;2023-07-20T04:28:05;3.90;;;2.40;;
60847;SDS011;46681;47.696;9.140;2023-07-20T04:30:31;2.97;;;2.17;;
60847;SDS011;46681;47.696;9.140;2023-07-20T04:32:57;2.10;;;1.90;;
60847;SDS011;46681;47.696;9.140;2023-07-20T04:38:19;2.43;;;2.00;;
60847;SDS011;46681;47.696;9.140;2023-07-20T04:40:46;2.47;;;2.20;;
60847;SDS011;46681;47.696;9.140;2023-07-20T04:43:14;2.07;;;1.97;;
60847;SDS011;46681;47.696;9.140;2023-07-20T04:45:42;2.60;;;2.40;;
60847;SDS011;46681;47.696;9.140;2023-07-20T04:48:11;2.23;;;2.03;;
60847;SDS011;46681;47.696;9.140;2023-07-20T04:50:43;2.63;;;2.43;;
60847;SDS011;46681;47.696;9.140;2023-07-20T04:53:10;1.93;;;1.83;;
60847;SDS011;46681;47.696;9.140;2023-07-20T04:55:46;3.20;;;2.10;;
60847;SDS011;46681;47.696;9.140;2023-07-20T04:58:14;4.77;;;2.10;;
60847;SDS011;46681;47.696;9.140;2023-07-20T05:00:40;2.37;;;2.17;;
60847;SDS011;46681;47.696;9.140;2023-07-20T05:03:06;2.30;;;2.10;;
60847;SDS011;46681;47.696;9.140;2023-07-20T05:05:39;2.37;;;2.17;;
60847;SDS011;46681;47.696;9.140;2023-07-20T05:08:06;3.10;;;2.10;;
60847;SDS011;46681;47.696;9.140;2023-07-20T05:10:36;2.50;;;2.30;;
60847;SDS011;46681;47.696;9.140;2023-07-20T05:13:01;2.23;;;2.07;;
60847;SDS011;46681;47.696;9.140;2023-07-20T05:15:36;2.47;;;2.20;;
60847;SDS011;46681;47.696;9.140;2023-07-20T05:18:12;2.40;;;2.23;;
60847;SDS011;46681;47.696;9.140;2023-07-20T05:20:38;3.67;;;2.10;;
60847;SDS011;46681;47.696;9.140;2023-07-20T05:23:07;2.50;;;2.30;;
60847;SDS011;46681;47.696;9.140;2023-07-20T05:25:39;4.97;;;2.40;;
60847;SDS011;46681;47.696;9.140;2023-07-20T05:28:19;3.93;;;2.63;;
60847;SDS011;46681;47.696;9.140;2023-07-20T05:30:44;3.10;;;2.80;;
60847;SDS011;46681;47.696;9.140;2023-07-20T05:33:10;3.73;;;2.73;;
60847;SDS011;46681;47.696;9.140;2023-07-20T05:35:38;3.37;;;2.53;;
60847;SDS011;46681;47.696;9.140;2023-07-20T05:38:15;2.87;;;2.50;;
60847;SDS011;46681;47.696;9.140;2023-07-20T05:40:45;4.07;;;2.90;;
60847;SDS011;46681;47.696;9.140;2023-07-20T05:43:34;4.27;;;2.47;;
60847;SDS011;46681;47.696;9.140;2023-07-20T05:46:01;4.27;;;2.90;;
60847;SDS011;46681;47.696;9.140;2023-07-20T05:48:29;5.10;;;2.70;;
60847;SDS011;46681;47.696;9.140;2023-07-20T05:50:56;4.13;;;2.57;;
60847;SDS011;46681;47.696;9.140;2023-07-20T05:53:28;3.57;;;2.70;;
60847;SDS011;46681;47.696;9.140;2023-07-20T05:56:04;2.90;;;2.60;;
60847;SDS011;46681;47.696;9.140;2023-07-20T05:58:31;3.10;;;2.23;;
60847;SDS011;46681;47.696;9.140;2023-07-20T06:01:05;4.30;;;2.30;;
60847;SDS011;46681;47.696;9.140;2023-07-20T06:03:41;4.23;;;2.50;;
60847;SDS011;46681;47.696;9.140;2023-07-20T06:06:30;5.50;;;2.57;;
60847;SDS011;46681;47.696;9.140;2023-07-20T06:09:06;3.77;;;2.50;;
60847;SDS011;46681;47.696;9.140;2023-07-20T06:11:32;3.70;;;2.80;;
60847;SDS011;46681;47.696;9.140;2023-07-20T06:17:12;3.53;;;2.47;;
60847;SDS011;46681;47.696;9.140;2023-07-20T06:19:43;3.63;;;2.70;;
60847;SDS011;46681;47.696;9.140;2023-07-20T06:22:22;3.03;;;2.73;;
60847;SDS011;46681;47.696;9.140;2023-07-20T06:24:51;3.93;;;2.40;;
60847;SDS011;46681;47.696;9.140;2023-07-20T06:27:40;3.10;;;2.50;;
60847;SDS011;46681;47.696;9.140;2023-07-20T06:30:23;4.03;;;2.87;;
60847;SDS011;46681;47.696;9.140;2023-07-20T06:33:10;3.47;;;2.40;;
60847;SDS011;46681;47.696;9.140;2023-07-20T06:35:48;3.33;;;2.40;;
60847;SDS011;46681;47.696;9.140;2023-07-20T06:38:24;2.97;;;2.67;;
60847;SDS011;46681;47.696;9.140;2023-07-20T06:40:51;3.97;;;2.53;;
60847;SDS011;46681;47.696;9.140;2023-07-20T06:43:26;2.93;;;2.63;;
60847;SDS011;46681;47.696;9.140;2023-07-20T06:46:12;2.83;;;2.20;;
60847;SDS011;46681;47.696;9.140;2023-07-20T06:48:38;3.00;;;2.67;;
60847;SDS011;46681;47.696;9.140;2023-07-20T06:51:26;2.50;;;2.30;;
60847;SDS011;46681;47.696;9.140;2023-07-20T06:54:09;3.90;;;2.33;;
60847;SDS011;46681;47.696;9.140;2023-07-20T06:56:51;2.50;;;2.30;;
60847;SDS011;46681;47.696;9.140;2023-07-20T07:03:09;2.40;;;2.30;;
60847;SDS011;46681;47.696;9.140;2023-07-20T07:05:39;2.97;;;2.30;;
60847;SDS011;46681;47.696;9.140;2023-07-20T07:08:26;2.73;;;2.50;;
60847;SDS011;46681;47.696;9.140;2023-07-20T07:13:57;3.67;;;2.53;;
60847;SDS011;46681;47.696;9.140;2023-07-20T07:28:47;2.73;;;2.47;;
60847;SDS011;46681;47.696;9.140;2023-07-20T07:43:39;2.20;;;2.10;;
60847;SDS011;46681;47.696;9.140;2023-07-20T07:49:15;2.33;;;2.00;;
60847;SDS011;46681;47.696;9.140;2023-07-20T08:01:26;2.20;;;2.10;;
60847;SDS011;46681;47.696;9.140;2023-07-20T08:04:10;2.07;;;1.87;;
60847;SDS011;46681;47.696;9.140;2023-07-20T08:06:54;2.27;;;2.17;;
60847;SDS011;46681;47.696;9.140;2023-07-20T08:09:57;1.90;;;1.80;;
60847;SDS011;46681;47.696;9.140;2023-07-20T08:13:20;2.97;;;2.27;;
60847;SDS011;46681;47.696;9.140;2023-07-20T08:19:00;1.93;;;1.67;;
60847;SDS011;46681;47.696;9.140;2023-07-20T08:21:46;2.40;;;1.83;;
60847;SDS011;46681;47.696;9.140;2023-07-20T08:24:50;2.10;;;1.90;;
60847;SDS011;46681;47.696;9.140;2023-07-20T08:33:31;2.10;;;1.93;;
60847;SDS011;46681;47.696;9.140;2023-07-20T08:54:29;2.40;;;1.70;;
60847;SDS011;46681;47.696;9.140;2023-07-20T08:57:46;2.20;;;2.00;;
60847;SDS011;46681;47.696;9.140;2023-07-20T09:00:30;1.57;;;1.47;;
60847;SDS011;46681;47.696;9.140;2023-07-20T09:03:17;2.17;;;2.00;;
60847;SDS011;46681;47.696;9.140;2023-07-20T09:06:14;1.87;;;1.63;;
60847;SDS011;46681;47.696;9.140;2023-07-20T09:08:50;2.73;;;1.77;;
60847;SDS011;46681;47.696;9.140;2023-07-20T09:11:17;2.17;;;1.97;;
60847;SDS011;46681;47.696;9.140;2023-07-20T09:25:46;1.90;;;1.80;;
60847;SDS011;46681;47.696;9.140;2023-07-20T09:28:43;1.80;;;1.70;;
60847;SDS011;46681;47.696;9.140;2023-07-20T09:31:19;2.23;;;1.67;;
60847;SDS011;46681;47.696;9.140;2023-07-20T09:34:17;1.60;;;1.50;;
60847;SDS011;46681;47.696;9.140;2023-07-20T09:36:50;1.70;;;1.60;;
60847;SDS011;46681;47.696;9.140;2023-07-20T09:55:22;2.13;;;1.70;;
60847;SDS011;46681;47.696;9.140;2023-07-20T09:58:16;1.83;;;1.60;;
60847;SDS011;46681;47.696;9.140;2023-07-20T10:01:03;1.83;;;1.70;;
60847;SDS011;46681;47.696;9.140;2023-07-20T10:04:11;1.73;;;1.63;;
60847;SDS011;46681;47.696;9.140;2023-07-20T10:06:52;2.07;;;1.70;;
60847;SDS011;46681;47.696;9.140;2023-07-20T10:09:21;1.80;;;1.70;;
60847;SDS011;46681;47.696;9.140;2023-07-20T10:12:14;1.97;;;1.70;;
60847;SDS011;46681;47.696;9.140;2023-07-20T10:42:47;2.20;;;1.70;;
60847;SDS011;46681;47.696;9.140;2023-07-20T11:06:54;1.53;;;1.43;;
60847;SDS011;46681;47.696;9.140;2023-07-20T11:22:28;3.03;;;1.53;;
60847;SDS011;46681;47.696;9.140;2023-07-20T11:34:33;1.70;;;1.60;;
60847;SDS011;46681;47.696;9.140;2023-07-20T11:40:04;1.93;;;1.37;;
60847;SDS011;46681;47.696;9.140;2023-07-20T11:52:04;1.87;;;1.33;;
60847;SDS011;46681;47.696;9.140;2023-07-20T12:13:43;1.73;;;1.00;;
60847;SDS011;46681;47.696;9.140;2023-07-20T12:19:27;2.20;;;1.40;;
60847;SDS011;46681;47.696;9.140;2023-07-20T12:22:14;1.10;;;1.10;;
60847;SDS011;46681;47.696;9.140;2023-07-20T12:34:01;1.50;;;1.40;;
60847;SDS011;46681;47.696;9.140;2023-07-20T12:36:35;2.08;;;1.30;;
60847;SDS011;46681;47.696;9.140;2023-07-20T12:41:49;7.13;;;1.40;;
60847;SDS011;46681;47.696;9.140;2023-07-20T12:44:15;2.20;;;1.20;;
60847;SDS011;46681;47.696;9.140;2023-07-20T12:47:13;1.90;;;1.33;;
60847;SDS011;46681;47.696;9.140;2023-07-20T12:50:29;2.83;;;1.58;;
60847;SDS011;46681;47.696;9.140;2023-07-20T12:52:57;2.55;;;1.40;;
60847;SDS011;46681;47.696;9.140;2023-07-20T13:08:26;2.40;;;1.40;;
60847;SDS011;46681;47.696;9.140;2023-07-20T13:17:26;1.20;;;1.08;;
60847;SDS011;46681;47.696;9.140;2023-07-20T13:20:26;3.08;;;1.30;;
60847;SDS011;46681;47.696;9.140;2023-07-20T13:26:15;1.10;;;1.00;;
60847;SDS011;46681;47.696;9.140;2023-07-20T13:32:04;1.67;;;1.40;;
60847;SDS011;46681;47.696;9.140;2023-07-20T13:34:44;2.22;;;1.30;;
60847;SDS011;46681;47.696;9.140;2023-07-20T13:37:18;1.70;;;1.35;;
60847;SDS011;46681;47.696;9.140;2023-07-20T13:43:03;1.65;;;1.20;;
60847;SDS011;46681;47.696;9.140;2023-07-20T13:45:39;0.98;;;0.93;;
60847;SDS011;46681;47.696;9.140;2023-07-20T13:48:11;1.40;;;1.20;;
60847;SDS011;46681;47.696;9.140;2023-07-20T13:51:14;2.15;;;1.38;;
60847;SDS011;46681;47.696;9.140;2023-07-20T13:53:41;2.88;;;1.20;;
60847;SDS011;46681;47.696;9.140;2023-07-20T13:56:28;1.27;;;1.00;;
60847;SDS011;46681;47.696;9.140;2023-07-20T13:59:20;1.42;;;1.17;;
60847;SDS011;46681;47.696;9.140;2023-07-20T14:02:09;2.67;;;1.38;;
60847;SDS011;46681;47.696;9.140;2023-07-20T14:04:57;1.33;;;1.23;;
60847;SDS011;46681;47.696;9.140;2023-07-20T14:07:27;1.85;;;1.40;;
60847;SDS011;46681;47.696;9.140;2023-07-20T14:13:14;1.30;;;1.20;;
60847;SDS011;46681;47.696;9.140;2023-07-20T14:15:58;2.53;;;1.25;;
60847;SDS011;46681;47.696;9.140;2023-07-20T14:24:13;3.83;;;1.30;;
60847;SDS011;46681;47.696;9.140;2023-07-20T14:30:24;1.10;;;1.05;;
60847;SDS011;46681;47.696;9.140;2023-07-20T14:33:33;1.03;;;1.00;;
60847;SDS011;46681;47.696;9.140;2023-07-20T14:36:38;1.38;;;1.27;;
60847;SDS011;46681;47.696;9.140;2023-07-20T14:45:48;1.15;;;1.15;;
60847;SDS011;46681;47.696;9.140;2023-07-20T14:51:12;1.20;;;0.90;;
60847;SDS011;46681;47.696;9.140;2023-07-20T14:53:47;2.47;;;1.10;;
60847;SDS011;46681;47.696;9.140;2023-07-20T14:59:56;1.80;;;1.00;;
60847;SDS011;46681;47.696;9.140;2023-07-20T15:03:05;4.00;;;1.20;;
60847;SDS011;46681;47.696;9.140;2023-07-20T15:09:15;1.03;;;0.90;;
60847;SDS011;46681;47.696;9.140;2023-07-20T15:12:21;1.00;;;1.00;;
60847;SDS011;46681;47.696;9.140;2023-07-20T15:17:57;2.10;;;1.10;;
60847;SDS011;46681;47.696;9.140;2023-07-20T15:20:57;3.40;;;1.33;;
60847;SDS011;46681;47.696;9.140;2023-07-20T15:23:59;1.57;;;1.33;;
60847;SDS011;46681;47.696;9.140;2023-07-20T15:26:34;1.20;;;1.10;;
60847;SDS011;46681;47.696;9.140;2023-07-20T15:32:10;3.30;;;1.40;;
60847;SDS011;46681;47.696;9.140;2023-07-20T15:35:23;1.40;;;1.30;;
60847;SDS011;46681;47.696;9.140;2023-07-20T15:38:27;1.90;;;1.00;;
60847;SDS011;46681;47.696;9.140;2023-07-20T15:41:19;3.80;;;1.20;;
60847;SDS011;46681;47.696;9.140;2023-07-20T15:44:24;5.30;;;1.67;;
60847;SDS011;46681;47.696;9.140;2023-07-20T15:49:47;4.13;;;1.43;;
60847;SDS011;46681;47.696;9.140;2023-07-20T15:52:14;4.33;;;1.20;;
60847;SDS011;46681;47.696;9.140;2023-07-20T16:13:53;1.67;;;1.30;;
60847;SDS011;46681;47.696;9.140;2023-07-20T16:16:48;1.90;;;1.57;;
60847;SDS011;46681;47.696;9.140;2023-07-20T16:19:49;1.30;;;1.30;;
60847;SDS011;46681;47.696;9.140;2023-07-20T16:22:35;1.57;;;1.47;;
60847;SDS011;46681;47.696;9.140;2023-07-20T16:25:27;2.03;;;1.40;;
60847;SDS011;46681;47.696;9.140;2023-07-20T16:28:16;4.40;;;2.27;;
60847;SDS011;46681;47.696;9.140;2023-07-20T16:30:52;2.13;;;1.97;;
60847;SDS011;46681;47.696;9.140;2023-07-20T16:39:57;2.20;;;1.77;;
60847;SDS011;46681;47.696;9.140;2023-07-20T16:43:03;2.90;;;1.60;;
60847;SDS011;46681;47.696;9.140;2023-07-20T16:55:28;6.47;;;1.77;;
60847;SDS011;46681;47.696;9.140;2023-07-20T17:01:33;3.20;;;1.70;;
60847;SDS011;46681;47.696;9.140;2023-07-20T17:10:42;1.73;;;1.60;;
60847;SDS011;46681;47.696;9.140;2023-07-20T17:13:50;2.10;;;1.77;;
60847;SDS011;46681;47.696;9.140;2023-07-20T17:19:40;2.83;;;1.53;;
60847;SDS011;46681;47.696;9.140;2023-07-20T17:22:27;2.90;;;1.80;;
60847;SDS011;46681;47.696;9.140;2023-07-20T17:25:13;3.30;;;1.67;;
60847;SDS011;46681;47.696;9.140;2023-07-20T17:27:43;3.00;;;1.60;;
60847;SDS011;46681;47.696;9.140;2023-07-20T17:30:45;1.83;;;1.70;;
60847;SDS011;46681;47.696;9.140;2023-07-20T17:33:53;3.43;;;1.90;;
60847;SDS011;46681;47.696;9.140;2023-07-20T17:36:36;2.20;;;2.00;;
60847;SDS011;46681;47.696;9.140;2023-07-20T17:39:21;2.53;;;1.80;;
60847;SDS011;46681;47.696;9.140;2023-07-20T17:41:52;3.37;;;1.87;;
60847;SDS011;46681;47.696;9.140;2023-07-20T17:47:32;2.60;;;1.53;;
60847;SDS011;46681;47.696;9.140;2023-07-20T17:50:22;3.27;;;2.13;;
60847;SDS011;46681;47.696;9.140;2023-07-20T17:52:59;4.20;;;1.90;;
60847;SDS011;46681;47.696;9.140;2023-07-20T17:56:09;2.80;;;1.80;;
60847;SDS011;46681;47.696;9.140;2023-07-20T17:59:27;3.20;;;1.60;;
60847;SDS011;46681;47.696;9.140;2023-07-20T18:02:05;3.77;;;1.87;;
60847;SDS011;46681;47.696;9.140;2023-07-20T18:05:08;2.00;;;1.80;;
60847;SDS011;46681;47.696;9.140;2023-07-20T18:07:52;4.53;;;1.70;;
60847;SDS011;46681;47.696;9.140;2023-07-20T18:11:16;2.77;;;1.40;;
60847;SDS011;46681;47.696;9.140;2023-07-20T18:16:31;1.93;;;1.77;;
60847;SDS011;46681;47.696;9.140;2023-07-20T18:18:59;2.70;;;1.90;;
60847;SDS011;46681;47.696;9.140;2023-07-20T18:21:39;2.50;;;1.90;;
60847;SDS011;46681;47.696;9.140;2023-07-20T18:24:33;2.00;;;1.70;;
60847;SDS011;46681;47.696;9.140;2023-07-20T18:27:04;2.93;;;2.10;;
60847;SDS011;46681;47.696;9.140;2023-07-20T18:29:53;3.33;;;2.00;;
60847;SDS011;46681;47.696;9.140;2023-07-20T18:32:19;4.27;;;2.13;;
60847;SDS011;46681;47.696;9.140;2023-07-20T18:34:50;2.87;;;2.03;;
60847;SDS011;46681;47.696;9.140;2023-07-20T18:37:24;2.33;;;1.90;;
60847;SDS011;46681;47.696;9.140;2023-07-20T18:39:58;2.67;;;1.87;;
60847;SDS011;46681;47.696;9.140;2023-07-20T18:42:24;2.63;;;1.70;;
60847;SDS011;46681;47.696;9.140;2023-07-20T18:44:53;2.73;;;1.80;;
60847;SDS011;46681;47.696;9.140;2023-07-20T18:47:28;2.17;;;1.63;;
60847;SDS011;46681;47.696;9.140;2023-07-20T18:50:03;3.97;;;1.70;;
60847;SDS011;46681;47.696;9.140;2023-07-20T18:52:32;4.50;;;2.07;;
60847;SDS011;46681;47.696;9.140;2023-07-20T18:55:18;2.30;;;2.00;;
60847;SDS011;46681;47.696;9.140;2023-07-20T18:57:44;3.03;;;1.70;;
60847;SDS011;46681;47.696;9.140;2023-07-20T19:00:12;4.40;;;2.10;;
60847;SDS011;46681;47.696;9.140;2023-07-20T19:02:50;2.20;;;2.00;;
60847;SDS011;46681;47.696;9.140;2023-07-20T19:05:22;2.43;;;1.50;;
60847;SDS011;46681;47.696;9.140;2023-07-20T19:07:49;3.20;;;1.73;;
60847;SDS011;46681;47.696;9.140;2023-07-20T19:10:26;3.97;;;1.70;;
60847;SDS011;46681;47.696;9.140;2023-07-20T19:12:52;1.57;;;1.40;;
60847;SDS011;46681;47.696;9.140;2023-07-20T19:15:22;2.17;;;1.83;;
60847;SDS011;46681;47.696;9.140;2023-07-20T19:17:50;2.97;;;1.80;;
60847;SDS011;46681;47.696;9.140;2023-07-20T19:20:16;2.23;;;1.70;;
60847;SDS011;46681;47.696;9.140;2023-07-20T19:25:49;2.43;;;1.60;;
60847;SDS011;46681;47.696;9.140;2023-07-20T19:31:20;1.50;;;1.40;;
60847;SDS011;46681;47.696;9.140;2023-07-20T19:40:01;1.67;;;1.57;;
60847;SDS011;46681;47.696;9.140;2023-07-20T19:42:55;1.70;;;1.60;;
60847;SDS011;46681;47.696;9.140;2023-07-20T19:45:36;5.83;;;1.63;;
60847;SDS011;46681;47.696;9.140;2023-07-20T19:48:07;7.23;;;1.53;;
60847;SDS011;46681;47.696;9.140;2023-07-20T19:51:04;2.80;;;1.63;;
60847;SDS011;46681;47.696;9.140;2023-07-20T19:53:40;3.93;;;1.63;;
60847;SDS011;46681;47.696;9.140;2023-07-20T19:59:05;8.03;;;1.70;;
60847;SDS011;46681;47.696;9.140;2023-07-20T20:01:44;2.53;;;1.73;;
60847;SDS011;46681;47.696;9.140;2023-07-20T20:04:25;2.00;;;1.50;;
60847;SDS011;46681;47.696;9.140;2023-07-20T20:09:46;2.97;;;1.80;;
60847;SDS011;46681;47.696;9.140;2023-07-20T20:12:15;1.73;;;1.63;;
60847;SDS011;46681;47.696;9.140;2023-07-20T20:14:41;1.53;;;1.43;;
60847;SDS011;46681;47.696;9.140;2023-07-20T20:17:09;1.70;;;1.60;;
60847;SDS011;46681;47.696;9.140;2023-07-20T20:19:37;1.70;;;1.60;;
60847;SDS011;46681;47.696;9.140;2023-07-20T20:22:04;2.10;;;1.60;;
60847;SDS011;46681;47.696;9.140;2023-07-20T20:24:31;2.67;;;1.60;;
60847;SDS011;46681;47.696;9.140;2023-07-20T20:27:00;1.70;;;1.60;;
60847;SDS011;46681;47.696;9.140;2023-07-20T20:29:28;1.43;;;1.37;;
60847;SDS011;46681;47.696;9.140;2023-07-20T20:31:57;2.40;;;1.70;;
60847;SDS011;46681;47.696;9.140;2023-07-20T20:34:27;1.97;;;1.50;;
60847;SDS011;46681;47.696;9.140;2023-07-20T20:36:53;2.97;;;1.60;;
60847;SDS011;46681;47.696;9.140;2023-07-20T20:39:19;2.00;;;1.70;;
60847;SDS011;46681;47.696;9.140;2023-07-20T20:41:47;1.83;;;1.50;;
60847;SDS011;46681;47.696;9.140;2023-07-20T20:44:12;2.47;;;1.70;;
60847;SDS011;46681;47.696;9.140;2023-07-20T20:46:38;2.07;;;1.77;;
60847;SDS011;46681;47.696;9.140;2023-07-20T20:49:04;2.47;;;1.70;;
60847;SDS011;46681;47.696;9.140;2023-07-20T20:51:29;1.83;;;1.57;;
60847;SDS011;46681;47.696;9.140;2023-07-20T20:53:57;2.30;;;1.97;;
60847;SDS011;46681;47.696;9.140;2023-07-20T20:56:25;1.87;;;1.77;;
60847;SDS011;46681;47.696;9.140;2023-07-20T20:58:51;5.27;;;1.87;;
60847;SDS011;46681;47.696;9.140;2023-07-20T21:01:24;2.27;;;1.87;;
60847;SDS011;46681;47.696;9.140;2023-07-20T21:03:55;1.80;;;1.70;;
60847;SDS011;46681;47.696;9.140;2023-07-20T21:06:22;1.73;;;1.60;;
60847;SDS011;46681;47.696;9.140;2023-07-20T21:08:51;3.40;;;1.70;;
60847;SDS011;46681;47.696;9.140;2023-07-20T21:11:22;2.60;;;1.83;;
60847;SDS011;46681;47.696;9.140;2023-07-20T21:13:53;1.70;;;1.60;;
60847;SDS011;46681;47.696;9.140;2023-07-20T21:16:22;7.23;;;1.60;;
60847;SDS011;46681;47.696;9.140;2023-07-20T21:18:47;3.27;;;2.10;;
60847;SDS011;46681;47.696;9.140;2023-07-20T21:21:15;1.73;;;1.63;;
60847;SDS011;46681;47.696;9.140;2023-07-20T21:23:41;1.90;;;1.80;;
60847;SDS011;46681;47.696;9.140;2023-07-20T21:26:08;1.63;;;1.53;;
60847;SDS011;46681;47.696;9.140;2023-07-20T21:28:35;3.93;;;2.07;;
60847;SDS011;46681;47.696;9.140;2023-07-20T21:31:01;1.93;;;1.83;;
60847;SDS011;46681;47.696;9.140;2023-07-20T21:33:31;1.90;;;1.80;;
60847;SDS011;46681;47.696;9.140;2023-07-20T21:35:56;1.63;;;1.50;;
60847;SDS011;46681;47.696;9.140;2023-07-20T21:38:22;1.53;;;1.50;;
60847;SDS011;46681;47.696;9.140;2023-07-20T21:40:48;1.57;;;1.47;;
60847;SDS011;46681;47.696;9.140;2023-07-20T21:43:13;1.80;;;1.70;;
60847;SDS011;46681;47.696;9.140;2023-07-20T21:45:39;1.93;;;1.70;;
60847;SDS011;46681;47.696;9.140;2023-07-20T21:48:05;1.83;;;1.60;;